sensor_id;sensor_type;location;lat;lon;timestamp;P1;durP1;ratioP1;P2;durP2;ratioP2
52412;SDS011;38339;53.234;6.578;2022-08-14T00:00:11;10.15;;;5.93;;
52412;SDS011;38339;53.234;6.578;2022-08-14T00:02:40;7.32;;;5.43;;
52412;SDS011;38339;53.234;6.578;2022-08-14T00:05:12;10.02;;;6.28;;
52412;SDS011;38339;53.234;6.578;2022-08-14T00:07:39;7.88;;;6.35;;
52412;SDS011;38339;53.234;6.578;2022-08-14T00:10:07;13.23;;;8.80;;
52412;SDS011;38339;53.234;6.578;2022-08-14T00:12:38;7.88;;;5.75;;
52412;SDS011;38339;53.234;6.578;2022-08-14T00:15:11;7.65;;;5.93;;
52412;SDS011;38339;53.234;6.578;2022-08-14T00:17:57;8.82;;;5.55;;
52412;SDS011;38339;53.234;6.578;2022-08-14T00:20:24;12.55;;;6.07;;
52412;SDS011;38339;53.234;6.578;2022-08-14T00:22:52;10.75;;;6.68;;
52412;SDS011;38339;53.234;6.578;2022-08-14T00:25:18;10.20;;;7.80;;
52412;SDS011;38339;53.234;6.578;2022-08-14T00:27:44;11.38;;;7.40;;
52412;SDS011;38339;53.234;6.578;2022-08-14T00:30:10;12.23;;;7.78;;
52412;SDS011;38339;53.234;6.578;2022-08-14T00:32:37;10.10;;;6.97;;
52412;SDS011;38339;53.234;6.578;2022-08-14T00:35:04;12.73;;;7.45;;
52412;SDS011;38339;53.234;6.578;2022-08-14T00:37:30;10.13;;;7.55;;
52412;SDS011;38339;53.234;6.578;2022-08-14T00:39:57;10.77;;;6.90;;
52412;SDS011;38339;53.234;6.578;2022-08-14T00:42:23;10.93;;;7.32;;
52412;SDS011;38339;53.234;6.578;2022-08-14T00:44:49;10.23;;;6.90;;
52412;SDS011;38339;53.234;6.578;2022-08-14T00:47:16;10.90;;;6.95;;
52412;SDS011;38339;53.234;6.578;2022-08-14T00:49:42;9.15;;;7.28;;
52412;SDS011;38339;53.234;6.578;2022-08-14T00:52:13;10.88;;;7.07;;
52412;SDS011;38339;53.234;6.578;2022-08-14T00:54:40;11.80;;;7.28;;
52412;SDS011;38339;53.234;6.578;2022-08-14T00:57:06;9.90;;;6.95;;
52412;SDS011;38339;53.234;6.578;2022-08-14T00:59:32;11.23;;;7.07;;
52412;SDS011;38339;53.234;6.578;2022-08-14T01:01:59;9.80;;;7.00;;
52412;SDS011;38339;53.234;6.578;2022-08-14T01:04:26;11.32;;;7.00;;
52412;SDS011;38339;53.234;6.578;2022-08-14T01:06:53;10.05;;;6.85;;
52412;SDS011;38339;53.234;6.578;2022-08-14T01:09:19;9.60;;;7.47;;
52412;SDS011;38339;53.234;6.578;2022-08-14T01:11:50;9.00;;;7.05;;
52412;SDS011;38339;53.234;6.578;2022-08-14T01:14:17;12.63;;;7.95;;
52412;SDS011;38339;53.234;6.578;2022-08-14T01:16:43;9.48;;;7.25;;
52412;SDS011;38339;53.234;6.578;2022-08-14T01:19:10;9.95;;;7.25;;
52412;SDS011;38339;53.234;6.578;2022-08-14T01:21:54;8.57;;;6.85;;
52412;SDS011;38339;53.234;6.578;2022-08-14T01:24:20;10.15;;;7.22;;
52412;SDS011;38339;53.234;6.578;2022-08-14T01:26:47;9.13;;;7.70;;
52412;SDS011;38339;53.234;6.578;2022-08-14T01:29:12;10.55;;;7.30;;
52412;SDS011;38339;53.234;6.578;2022-08-14T01:31:39;11.07;;;7.43;;
52412;SDS011;38339;53.234;6.578;2022-08-14T01:34:13;12.47;;;7.60;;
52412;SDS011;38339;53.234;6.578;2022-08-14T01:36:39;10.40;;;7.57;;
52412;SDS011;38339;53.234;6.578;2022-08-14T01:39:10;12.90;;;7.65;;
52412;SDS011;38339;53.234;6.578;2022-08-14T01:41:37;10.10;;;7.57;;
52412;SDS011;38339;53.234;6.578;2022-08-14T01:44:06;9.88;;;7.78;;
52412;SDS011;38339;53.234;6.578;2022-08-14T01:46:37;14.05;;;7.97;;
52412;SDS011;38339;53.234;6.578;2022-08-14T01:49:06;10.70;;;7.30;;
52412;SDS011;38339;53.234;6.578;2022-08-14T01:51:33;12.98;;;8.15;;
52412;SDS011;38339;53.234;6.578;2022-08-14T01:54:00;10.88;;;7.78;;
52412;SDS011;38339;53.234;6.578;2022-08-14T01:56:33;9.55;;;7.80;;
52412;SDS011;38339;53.234;6.578;2022-08-14T01:59:02;12.98;;;8.35;;
52412;SDS011;38339;53.234;6.578;2022-08-14T02:01:53;10.57;;;8.10;;
52412;SDS011;38339;53.234;6.578;2022-08-14T02:04:22;10.10;;;7.72;;
52412;SDS011;38339;53.234;6.578;2022-08-14T02:06:49;11.50;;;8.55;;
52412;SDS011;38339;53.234;6.578;2022-08-14T02:09:17;9.80;;;8.60;;
52412;SDS011;38339;53.234;6.578;2022-08-14T02:11:44;9.05;;;7.97;;
52412;SDS011;38339;53.234;6.578;2022-08-14T02:14:11;10.52;;;8.48;;
52412;SDS011;38339;53.234;6.578;2022-08-14T02:16:42;12.45;;;9.10;;
52412;SDS011;38339;53.234;6.578;2022-08-14T02:19:11;13.25;;;9.25;;
52412;SDS011;38339;53.234;6.578;2022-08-14T02:21:39;12.10;;;9.10;;
52412;SDS011;38339;53.234;6.578;2022-08-14T02:24:11;12.90;;;9.07;;
52412;SDS011;38339;53.234;6.578;2022-08-14T02:26:39;13.20;;;9.25;;
52412;SDS011;38339;53.234;6.578;2022-08-14T02:29:07;13.25;;;9.90;;
52412;SDS011;38339;53.234;6.578;2022-08-14T02:31:39;13.27;;;9.13;;
52412;SDS011;38339;53.234;6.578;2022-08-14T02:34:09;11.45;;;8.88;;
52412;SDS011;38339;53.234;6.578;2022-08-14T02:36:38;11.75;;;9.50;;
52412;SDS011;38339;53.234;6.578;2022-08-14T02:39:06;12.80;;;9.98;;
52412;SDS011;38339;53.234;6.578;2022-08-14T02:41:35;11.60;;;9.18;;
52412;SDS011;38339;53.234;6.578;2022-08-14T02:44:05;12.18;;;9.80;;
52412;SDS011;38339;53.234;6.578;2022-08-14T02:46:34;12.75;;;9.27;;
52412;SDS011;38339;53.234;6.578;2022-08-14T02:49:00;13.32;;;9.82;;
52412;SDS011;38339;53.234;6.578;2022-08-14T02:51:27;11.48;;;9.13;;
52412;SDS011;38339;53.234;6.578;2022-08-14T02:53:54;14.23;;;9.82;;
52412;SDS011;38339;53.234;6.578;2022-08-14T02:56:20;12.25;;;9.48;;
52412;SDS011;38339;53.234;6.578;2022-08-14T02:58:47;12.70;;;9.50;;
52412;SDS011;38339;53.234;6.578;2022-08-14T03:01:15;12.02;;;9.52;;
52412;SDS011;38339;53.234;6.578;2022-08-14T03:03:43;11.98;;;9.52;;
52412;SDS011;38339;53.234;6.578;2022-08-14T03:06:10;12.73;;;9.48;;
52412;SDS011;38339;53.234;6.578;2022-08-14T03:08:37;11.63;;;9.32;;
52412;SDS011;38339;53.234;6.578;2022-08-14T03:11:04;12.48;;;10.02;;
52412;SDS011;38339;53.234;6.578;2022-08-14T03:13:34;11.50;;;9.65;;
52412;SDS011;38339;53.234;6.578;2022-08-14T03:16:02;12.73;;;10.38;;
52412;SDS011;38339;53.234;6.578;2022-08-14T03:18:29;13.40;;;9.43;;
52412;SDS011;38339;53.234;6.578;2022-08-14T03:20:55;10.73;;;9.55;;
52412;SDS011;38339;53.234;6.578;2022-08-14T03:23:23;12.23;;;9.63;;
52412;SDS011;38339;53.234;6.578;2022-08-14T03:25:49;11.18;;;9.88;;
52412;SDS011;38339;53.234;6.578;2022-08-14T03:28:15;11.02;;;9.73;;
52412;SDS011;38339;53.234;6.578;2022-08-14T03:30:40;13.32;;;10.43;;
52412;SDS011;38339;53.234;6.578;2022-08-14T03:33:10;13.55;;;10.43;;
52412;SDS011;38339;53.234;6.578;2022-08-14T03:35:37;13.20;;;10.50;;
52412;SDS011;38339;53.234;6.578;2022-08-14T03:38:05;11.48;;;9.82;;
52412;SDS011;38339;53.234;6.578;2022-08-14T03:40:34;13.38;;;10.07;;
52412;SDS011;38339;53.234;6.578;2022-08-14T03:43:02;13.52;;;10.25;;
52412;SDS011;38339;53.234;6.578;2022-08-14T03:45:32;11.57;;;9.60;;
52412;SDS011;38339;53.234;6.578;2022-08-14T03:48:03;11.32;;;9.88;;
52412;SDS011;38339;53.234;6.578;2022-08-14T03:50:39;12.85;;;10.00;;
52412;SDS011;38339;53.234;6.578;2022-08-14T03:53:11;12.20;;;10.30;;
52412;SDS011;38339;53.234;6.578;2022-08-14T03:55:38;10.95;;;9.45;;
52412;SDS011;38339;53.234;6.578;2022-08-14T03:58:05;13.82;;;10.10;;
52412;SDS011;38339;53.234;6.578;2022-08-14T04:00:32;11.73;;;9.68;;
52412;SDS011;38339;53.234;6.578;2022-08-14T04:02:58;13.13;;;9.75;;
52412;SDS011;38339;53.234;6.578;2022-08-14T04:05:24;14.25;;;10.23;;
52412;SDS011;38339;53.234;6.578;2022-08-14T04:07:50;12.30;;;9.80;;
52412;SDS011;38339;53.234;6.578;2022-08-14T04:10:16;10.98;;;9.40;;
52412;SDS011;38339;53.234;6.578;2022-08-14T04:12:41;13.63;;;9.90;;
52412;SDS011;38339;53.234;6.578;2022-08-14T04:15:07;11.88;;;9.15;;
52412;SDS011;38339;53.234;6.578;2022-08-14T04:17:34;11.73;;;9.75;;
52412;SDS011;38339;53.234;6.578;2022-08-14T04:20:00;13.02;;;9.75;;
52412;SDS011;38339;53.234;6.578;2022-08-14T04:22:28;13.98;;;10.18;;
52412;SDS011;38339;53.234;6.578;2022-08-14T04:24:55;13.07;;;10.10;;
52412;SDS011;38339;53.234;6.578;2022-08-14T04:27:22;15.50;;;9.90;;
52412;SDS011;38339;53.234;6.578;2022-08-14T04:29:48;10.82;;;9.73;;
52412;SDS011;38339;53.234;6.578;2022-08-14T04:32:13;11.50;;;9.75;;
52412;SDS011;38339;53.234;6.578;2022-08-14T04:34:39;12.25;;;9.93;;
52412;SDS011;38339;53.234;6.578;2022-08-14T04:37:06;12.75;;;9.55;;
52412;SDS011;38339;53.234;6.578;2022-08-14T04:39:53;14.18;;;9.82;;
52412;SDS011;38339;53.234;6.578;2022-08-14T04:42:38;10.68;;;9.18;;
52412;SDS011;38339;53.234;6.578;2022-08-14T04:45:23;13.60;;;10.00;;
52412;SDS011;38339;53.234;6.578;2022-08-14T04:47:51;12.88;;;10.15;;
52412;SDS011;38339;53.234;6.578;2022-08-14T04:50:35;12.27;;;9.50;;
52412;SDS011;38339;53.234;6.578;2022-08-14T04:53:03;12.75;;;9.90;;
52412;SDS011;38339;53.234;6.578;2022-08-14T04:55:28;11.27;;;10.07;;
52412;SDS011;38339;53.234;6.578;2022-08-14T04:57:54;12.40;;;9.77;;
52412;SDS011;38339;53.234;6.578;2022-08-14T05:00:20;15.13;;;10.27;;
52412;SDS011;38339;53.234;6.578;2022-08-14T05:02:47;13.98;;;9.88;;
52412;SDS011;38339;53.234;6.578;2022-08-14T05:05:13;11.90;;;9.75;;
52412;SDS011;38339;53.234;6.578;2022-08-14T05:07:39;13.98;;;10.02;;
52412;SDS011;38339;53.234;6.578;2022-08-14T05:10:06;12.75;;;9.85;;
52412;SDS011;38339;53.234;6.578;2022-08-14T05:12:32;11.45;;;10.05;;
52412;SDS011;38339;53.234;6.578;2022-08-14T05:14:58;15.73;;;9.95;;
52412;SDS011;38339;53.234;6.578;2022-08-14T05:17:24;12.35;;;10.02;;
52412;SDS011;38339;53.234;6.578;2022-08-14T05:19:50;10.95;;;9.55;;
52412;SDS011;38339;53.234;6.578;2022-08-14T05:22:17;14.23;;;9.40;;
52412;SDS011;38339;53.234;6.578;2022-08-14T05:24:44;13.25;;;10.25;;
52412;SDS011;38339;53.234;6.578;2022-08-14T05:27:12;15.32;;;10.43;;
52412;SDS011;38339;53.234;6.578;2022-08-14T05:29:37;10.95;;;9.73;;
52412;SDS011;38339;53.234;6.578;2022-08-14T05:32:06;12.98;;;9.73;;
52412;SDS011;38339;53.234;6.578;2022-08-14T05:34:32;13.52;;;9.30;;
52412;SDS011;38339;53.234;6.578;2022-08-14T05:37:01;13.68;;;9.70;;
52412;SDS011;38339;53.234;6.578;2022-08-14T05:39:27;12.73;;;9.15;;
52412;SDS011;38339;53.234;6.578;2022-08-14T05:41:53;12.23;;;9.73;;
52412;SDS011;38339;53.234;6.578;2022-08-14T05:44:20;14.52;;;9.45;;
52412;SDS011;38339;53.234;6.578;2022-08-14T05:46:47;11.27;;;10.02;;
52412;SDS011;38339;53.234;6.578;2022-08-14T05:49:12;12.90;;;9.55;;
52412;SDS011;38339;53.234;6.578;2022-08-14T05:51:38;9.82;;;8.70;;
52412;SDS011;38339;53.234;6.578;2022-08-14T05:54:05;11.70;;;8.80;;
52412;SDS011;38339;53.234;6.578;2022-08-14T05:56:31;13.32;;;9.23;;
52412;SDS011;38339;53.234;6.578;2022-08-14T05:58:58;13.90;;;8.75;;
52412;SDS011;38339;53.234;6.578;2022-08-14T06:01:23;13.30;;;9.13;;
52412;SDS011;38339;53.234;6.578;2022-08-14T06:03:49;11.05;;;8.88;;
52412;SDS011;38339;53.234;6.578;2022-08-14T06:06:16;11.93;;;9.05;;
52412;SDS011;38339;53.234;6.578;2022-08-14T06:08:42;10.95;;;9.05;;
52412;SDS011;38339;53.234;6.578;2022-08-14T06:11:09;9.95;;;8.25;;
52412;SDS011;38339;53.234;6.578;2022-08-14T06:13:36;11.65;;;9.18;;
52412;SDS011;38339;53.234;6.578;2022-08-14T06:16:03;12.90;;;8.77;;
52412;SDS011;38339;53.234;6.578;2022-08-14T06:18:29;14.88;;;9.23;;
52412;SDS011;38339;53.234;6.578;2022-08-14T06:20:55;12.05;;;9.48;;
52412;SDS011;38339;53.234;6.578;2022-08-14T06:23:21;12.73;;;9.57;;
52412;SDS011;38339;53.234;6.578;2022-08-14T06:25:47;13.90;;;9.32;;
52412;SDS011;38339;53.234;6.578;2022-08-14T06:28:19;12.07;;;9.15;;
52412;SDS011;38339;53.234;6.578;2022-08-14T06:30:47;11.30;;;9.15;;
52412;SDS011;38339;53.234;6.578;2022-08-14T06:33:14;13.10;;;10.07;;
52412;SDS011;38339;53.234;6.578;2022-08-14T06:35:41;14.32;;;9.40;;
52412;SDS011;38339;53.234;6.578;2022-08-14T06:38:07;13.40;;;9.30;;
52412;SDS011;38339;53.234;6.578;2022-08-14T06:40:34;15.50;;;10.50;;
52412;SDS011;38339;53.234;6.578;2022-08-14T06:43:04;11.68;;;9.18;;
52412;SDS011;38339;53.234;6.578;2022-08-14T06:45:32;15.20;;;9.90;;
52412;SDS011;38339;53.234;6.578;2022-08-14T06:47:59;15.00;;;9.52;;
52412;SDS011;38339;53.234;6.578;2022-08-14T06:50:25;12.05;;;9.27;;
52412;SDS011;38339;53.234;6.578;2022-08-14T06:52:52;14.38;;;9.52;;
52412;SDS011;38339;53.234;6.578;2022-08-14T06:55:17;11.38;;;9.05;;
52412;SDS011;38339;53.234;6.578;2022-08-14T06:57:44;11.38;;;8.68;;
52412;SDS011;38339;53.234;6.578;2022-08-14T07:00:13;13.05;;;9.07;;
52412;SDS011;38339;53.234;6.578;2022-08-14T07:02:40;11.77;;;9.45;;
52412;SDS011;38339;53.234;6.578;2022-08-14T07:05:25;10.88;;;9.57;;
52412;SDS011;38339;53.234;6.578;2022-08-14T07:10:38;14.38;;;9.32;;
52412;SDS011;38339;53.234;6.578;2022-08-14T07:13:07;10.75;;;9.07;;
52412;SDS011;38339;53.234;6.578;2022-08-14T07:15:34;16.95;;;11.57;;
52412;SDS011;38339;53.234;6.578;2022-08-14T07:18:00;14.05;;;9.98;;
52412;SDS011;38339;53.234;6.578;2022-08-14T07:20:27;10.57;;;8.30;;
52412;SDS011;38339;53.234;6.578;2022-08-14T07:22:54;10.35;;;8.27;;
52412;SDS011;38339;53.234;6.578;2022-08-14T07:25:26;11.07;;;8.32;;
52412;SDS011;38339;53.234;6.578;2022-08-14T07:27:52;13.25;;;8.30;;
52412;SDS011;38339;53.234;6.578;2022-08-14T07:30:18;11.27;;;8.52;;
52412;SDS011;38339;53.234;6.578;2022-08-14T07:32:44;13.77;;;8.35;;
52412;SDS011;38339;53.234;6.578;2022-08-14T07:35:10;9.88;;;7.80;;
52412;SDS011;38339;53.234;6.578;2022-08-14T07:37:36;12.40;;;7.70;;
52412;SDS011;38339;53.234;6.578;2022-08-14T07:40:02;8.50;;;7.60;;
52412;SDS011;38339;53.234;6.578;2022-08-14T07:42:29;11.00;;;7.53;;
52412;SDS011;38339;53.234;6.578;2022-08-14T07:44:55;11.82;;;7.75;;
52412;SDS011;38339;53.234;6.578;2022-08-14T07:47:21;11.05;;;7.40;;
52412;SDS011;38339;53.234;6.578;2022-08-14T07:49:53;9.10;;;7.70;;
52412;SDS011;38339;53.234;6.578;2022-08-14T07:52:25;10.68;;;7.78;;
52412;SDS011;38339;53.234;6.578;2022-08-14T07:54:52;9.95;;;7.90;;
52412;SDS011;38339;53.234;6.578;2022-08-14T07:57:18;12.68;;;8.30;;
52412;SDS011;38339;53.234;6.578;2022-08-14T07:59:44;11.25;;;7.75;;
52412;SDS011;38339;53.234;6.578;2022-08-14T08:02:12;10.52;;;7.55;;
52412;SDS011;38339;53.234;6.578;2022-08-14T08:04:40;11.55;;;8.02;;
52412;SDS011;38339;53.234;6.578;2022-08-14T08:07:10;8.45;;;7.13;;
52412;SDS011;38339;53.234;6.578;2022-08-14T08:09:37;11.65;;;7.57;;
52412;SDS011;38339;53.234;6.578;2022-08-14T08:12:08;44.08;;;32.22;;
52412;SDS011;38339;53.234;6.578;2022-08-14T08:14:35;14.82;;;10.85;;
52412;SDS011;38339;53.234;6.578;2022-08-14T08:17:02;8.60;;;7.18;;
52412;SDS011;38339;53.234;6.578;2022-08-14T08:19:28;10.45;;;7.53;;
52412;SDS011;38339;53.234;6.578;2022-08-14T08:21:56;10.38;;;6.78;;
52412;SDS011;38339;53.234;6.578;2022-08-14T08:24:22;8.93;;;7.00;;
52412;SDS011;38339;53.234;6.578;2022-08-14T08:26:48;10.20;;;6.72;;
52412;SDS011;38339;53.234;6.578;2022-08-14T08:29:18;8.60;;;6.88;;
52412;SDS011;38339;53.234;6.578;2022-08-14T08:31:46;9.93;;;7.10;;
52412;SDS011;38339;53.234;6.578;2022-08-14T08:34:14;11.85;;;7.65;;
52412;SDS011;38339;53.234;6.578;2022-08-14T08:36:41;12.68;;;6.85;;
52412;SDS011;38339;53.234;6.578;2022-08-14T08:39:07;9.07;;;6.68;;
52412;SDS011;38339;53.234;6.578;2022-08-14T08:41:44;8.77;;;7.00;;
52412;SDS011;38339;53.234;6.578;2022-08-14T08:44:11;9.50;;;6.93;;
52412;SDS011;38339;53.234;6.578;2022-08-14T08:46:37;8.32;;;6.53;;
52412;SDS011;38339;53.234;6.578;2022-08-14T08:49:04;9.48;;;6.07;;
52412;SDS011;38339;53.234;6.578;2022-08-14T08:51:35;9.43;;;5.95;;
52412;SDS011;38339;53.234;6.578;2022-08-14T08:54:10;9.18;;;6.82;;
52412;SDS011;38339;53.234;6.578;2022-08-14T08:56:38;11.93;;;8.35;;
52412;SDS011;38339;53.234;6.578;2022-08-14T08:59:24;9.45;;;6.43;;
52412;SDS011;38339;53.234;6.578;2022-08-14T09:02:01;10.80;;;6.32;;
52412;SDS011;38339;53.234;6.578;2022-08-14T09:06:59;15.73;;;7.75;;
52412;SDS011;38339;53.234;6.578;2022-08-14T09:09:25;8.77;;;6.57;;
52412;SDS011;38339;53.234;6.578;2022-08-14T09:11:53;9.57;;;6.78;;
52412;SDS011;38339;53.234;6.578;2022-08-14T09:14:30;8.80;;;5.90;;
52412;SDS011;38339;53.234;6.578;2022-08-14T09:16:57;7.50;;;6.18;;
52412;SDS011;38339;53.234;6.578;2022-08-14T09:19:24;8.70;;;6.55;;
52412;SDS011;38339;53.234;6.578;2022-08-14T09:21:52;8.80;;;6.28;;
52412;SDS011;38339;53.234;6.578;2022-08-14T09:24:19;12.48;;;6.82;;
52412;SDS011;38339;53.234;6.578;2022-08-14T09:26:44;8.30;;;6.28;;
52412;SDS011;38339;53.234;6.578;2022-08-14T09:29:11;8.73;;;6.00;;
52412;SDS011;38339;53.234;6.578;2022-08-14T09:31:37;9.57;;;6.15;;
52412;SDS011;38339;53.234;6.578;2022-08-14T09:39:51;11.07;;;5.90;;
52412;SDS011;38339;53.234;6.578;2022-08-14T09:42:43;7.43;;;6.60;;
52412;SDS011;38339;53.234;6.578;2022-08-14T09:45:28;15.70;;;12.55;;
52412;SDS011;38339;53.234;6.578;2022-08-14T09:48:19;10.23;;;7.38;;
52412;SDS011;38339;53.234;6.578;2022-08-14T09:50:48;10.52;;;6.93;;
52412;SDS011;38339;53.234;6.578;2022-08-14T09:53:16;10.27;;;6.13;;
52412;SDS011;38339;53.234;6.578;2022-08-14T09:55:57;8.45;;;6.15;;
52412;SDS011;38339;53.234;6.578;2022-08-14T09:58:33;7.82;;;5.95;;
52412;SDS011;38339;53.234;6.578;2022-08-14T10:01:06;9.65;;;6.32;;
52412;SDS011;38339;53.234;6.578;2022-08-14T10:03:37;8.20;;;5.68;;
52412;SDS011;38339;53.234;6.578;2022-08-14T10:06:17;8.55;;;5.82;;
52412;SDS011;38339;53.234;6.578;2022-08-14T10:11:15;8.23;;;6.68;;
52412;SDS011;38339;53.234;6.578;2022-08-14T10:13:43;8.73;;;6.22;;
52412;SDS011;38339;53.234;6.578;2022-08-14T10:16:10;11.65;;;6.47;;
52412;SDS011;38339;53.234;6.578;2022-08-14T10:18:36;7.22;;;5.80;;
52412;SDS011;38339;53.234;6.578;2022-08-14T10:21:02;7.53;;;5.88;;
52412;SDS011;38339;53.234;6.578;2022-08-14T10:23:40;8.70;;;6.30;;
52412;SDS011;38339;53.234;6.578;2022-08-14T10:26:08;8.43;;;6.13;;
52412;SDS011;38339;53.234;6.578;2022-08-14T10:28:38;9.52;;;6.00;;
52412;SDS011;38339;53.234;6.578;2022-08-14T10:31:19;8.35;;;6.10;;
52412;SDS011;38339;53.234;6.578;2022-08-14T10:33:58;7.72;;;5.93;;
52412;SDS011;38339;53.234;6.578;2022-08-14T10:36:33;10.57;;;6.20;;
52412;SDS011;38339;53.234;6.578;2022-08-14T10:39:00;7.77;;;5.70;;
52412;SDS011;38339;53.234;6.578;2022-08-14T10:41:33;10.30;;;6.60;;
52412;SDS011;38339;53.234;6.578;2022-08-14T10:44:05;7.90;;;5.38;;
52412;SDS011;38339;53.234;6.578;2022-08-14T10:49:22;8.07;;;5.13;;
52412;SDS011;38339;53.234;6.578;2022-08-14T10:51:57;6.80;;;5.45;;
52412;SDS011;38339;53.234;6.578;2022-08-14T10:54:42;8.82;;;5.47;;
52412;SDS011;38339;53.234;6.578;2022-08-14T10:58:10;7.10;;;5.95;;
52412;SDS011;38339;53.234;6.578;2022-08-14T11:00:12;5.68;;;4.97;;
52412;SDS011;38339;53.234;6.578;2022-08-14T11:02:40;7.30;;;5.20;;
52412;SDS011;38339;53.234;6.578;2022-08-14T11:05:08;6.97;;;5.25;;
52412;SDS011;38339;53.234;6.578;2022-08-14T11:07:59;7.65;;;5.20;;
52412;SDS011;38339;53.234;6.578;2022-08-14T11:10:42;6.47;;;5.28;;
52412;SDS011;38339;53.234;6.578;2022-08-14T11:13:17;8.90;;;7.60;;
52412;SDS011;38339;53.234;6.578;2022-08-14T11:15:49;8.75;;;6.18;;
52412;SDS011;38339;53.234;6.578;2022-08-14T11:18:16;8.30;;;5.72;;
52412;SDS011;38339;53.234;6.578;2022-08-14T11:20:50;7.80;;;5.15;;
52412;SDS011;38339;53.234;6.578;2022-08-14T11:23:28;7.43;;;5.30;;
52412;SDS011;38339;53.234;6.578;2022-08-14T11:25:59;6.50;;;5.55;;
52412;SDS011;38339;53.234;6.578;2022-08-14T11:28:26;8.18;;;5.45;;
52412;SDS011;38339;53.234;6.578;2022-08-14T11:30:56;6.07;;;5.40;;
52412;SDS011;38339;53.234;6.578;2022-08-14T11:33:23;6.38;;;5.40;;
52412;SDS011;38339;53.234;6.578;2022-08-14T11:35:55;9.90;;;5.95;;
52412;SDS011;38339;53.234;6.578;2022-08-14T11:38:23;7.53;;;5.70;;
52412;SDS011;38339;53.234;6.578;2022-08-14T11:40:49;6.60;;;5.28;;
52412;SDS011;38339;53.234;6.578;2022-08-14T11:43:15;6.88;;;5.40;;
52412;SDS011;38339;53.234;6.578;2022-08-14T11:45:46;7.30;;;5.80;;
52412;SDS011;38339;53.234;6.578;2022-08-14T11:50:52;12.68;;;11.10;;
52412;SDS011;38339;53.234;6.578;2022-08-14T11:55:44;7.78;;;5.63;;
52412;SDS011;38339;53.234;6.578;2022-08-14T11:58:13;9.65;;;5.40;;
52412;SDS011;38339;53.234;6.578;2022-08-14T12:00:47;7.15;;;5.35;;
52412;SDS011;38339;53.234;6.578;2022-08-14T12:03:15;6.72;;;5.20;;
52412;SDS011;38339;53.234;6.578;2022-08-14T12:05:41;8.05;;;5.40;;
52412;SDS011;38339;53.234;6.578;2022-08-14T12:08:07;6.53;;;5.38;;
52412;SDS011;38339;53.234;6.578;2022-08-14T12:10:39;7.97;;;5.13;;
52412;SDS011;38339;53.234;6.578;2022-08-14T12:13:10;8.25;;;5.65;;
52412;SDS011;38339;53.234;6.578;2022-08-14T12:15:41;7.38;;;5.60;;
52412;SDS011;38339;53.234;6.578;2022-08-14T12:18:09;7.72;;;5.63;;
52412;SDS011;38339;53.234;6.578;2022-08-14T12:20:36;7.90;;;6.07;;
52412;SDS011;38339;53.234;6.578;2022-08-14T12:23:07;11.35;;;5.72;;
52412;SDS011;38339;53.234;6.578;2022-08-14T12:25:48;7.93;;;5.32;;
52412;SDS011;38339;53.234;6.578;2022-08-14T12:28:14;6.60;;;5.47;;
52412;SDS011;38339;53.234;6.578;2022-08-14T12:30:44;11.07;;;7.30;;
52412;SDS011;38339;53.234;6.578;2022-08-14T12:33:22;8.77;;;5.68;;
52412;SDS011;38339;53.234;6.578;2022-08-14T12:35:51;7.88;;;5.05;;
52412;SDS011;38339;53.234;6.578;2022-08-14T12:38:29;7.88;;;5.68;;
52412;SDS011;38339;53.234;6.578;2022-08-14T12:40:56;7.78;;;5.35;;
52412;SDS011;38339;53.234;6.578;2022-08-14T12:43:22;8.88;;;6.05;;
52412;SDS011;38339;53.234;6.578;2022-08-14T12:45:51;6.57;;;5.13;;
52412;SDS011;38339;53.234;6.578;2022-08-14T12:48:22;8.20;;;5.50;;
52412;SDS011;38339;53.234;6.578;2022-08-14T12:50:49;9.18;;;5.82;;
52412;SDS011;38339;53.234;6.578;2022-08-14T12:53:16;7.68;;;5.40;;
52412;SDS011;38339;53.234;6.578;2022-08-14T12:55:43;8.35;;;5.30;;
52412;SDS011;38339;53.234;6.578;2022-08-14T12:58:26;10.93;;;5.35;;
52412;SDS011;38339;53.234;6.578;2022-08-14T13:00:53;8.57;;;4.90;;
52412;SDS011;38339;53.234;6.578;2022-08-14T13:03:24;8.80;;;5.60;;
52412;SDS011;38339;53.234;6.578;2022-08-14T13:05:51;7.72;;;5.50;;
52412;SDS011;38339;53.234;6.578;2022-08-14T13:08:18;10.27;;;5.57;;
52412;SDS011;38339;53.234;6.578;2022-08-14T13:10:47;7.20;;;4.97;;
52412;SDS011;38339;53.234;6.578;2022-08-14T13:13:17;7.28;;;5.15;;
52412;SDS011;38339;53.234;6.578;2022-08-14T13:15:45;7.47;;;5.40;;
52412;SDS011;38339;53.234;6.578;2022-08-14T13:18:18;11.27;;;6.45;;
52412;SDS011;38339;53.234;6.578;2022-08-14T13:20:46;10.75;;;5.82;;
52412;SDS011;38339;53.234;6.578;2022-08-14T13:23:13;8.40;;;5.60;;
52412;SDS011;38339;53.234;6.578;2022-08-14T13:25:42;7.50;;;5.65;;
52412;SDS011;38339;53.234;6.578;2022-08-14T13:28:08;7.53;;;5.45;;
52412;SDS011;38339;53.234;6.578;2022-08-14T13:30:37;7.80;;;5.70;;
52412;SDS011;38339;53.234;6.578;2022-08-14T13:33:09;8.95;;;6.20;;
52412;SDS011;38339;53.234;6.578;2022-08-14T13:35:35;8.10;;;5.78;;
52412;SDS011;38339;53.234;6.578;2022-08-14T13:38:02;11.88;;;7.82;;
52412;SDS011;38339;53.234;6.578;2022-08-14T13:40:27;9.80;;;6.03;;
52412;SDS011;38339;53.234;6.578;2022-08-14T13:42:54;8.65;;;5.75;;
52412;SDS011;38339;53.234;6.578;2022-08-14T13:45:20;8.52;;;6.20;;
52412;SDS011;38339;53.234;6.578;2022-08-14T13:47:48;9.40;;;5.88;;
52412;SDS011;38339;53.234;6.578;2022-08-14T13:50:15;10.20;;;5.57;;
52412;SDS011;38339;53.234;6.578;2022-08-14T13:52:47;9.55;;;5.50;;
52412;SDS011;38339;53.234;6.578;2022-08-14T13:55:22;9.15;;;5.25;;
52412;SDS011;38339;53.234;6.578;2022-08-14T13:57:50;8.95;;;5.70;;
52412;SDS011;38339;53.234;6.578;2022-08-14T14:00:19;7.43;;;5.47;;
52412;SDS011;38339;53.234;6.578;2022-08-14T14:02:45;7.70;;;5.72;;
52412;SDS011;38339;53.234;6.578;2022-08-14T14:05:16;9.85;;;5.53;;
52412;SDS011;38339;53.234;6.578;2022-08-14T14:07:49;8.63;;;5.40;;
52412;SDS011;38339;53.234;6.578;2022-08-14T14:10:17;8.00;;;5.72;;
52412;SDS011;38339;53.234;6.578;2022-08-14T14:12:46;7.55;;;5.35;;
52412;SDS011;38339;53.234;6.578;2022-08-14T14:15:14;7.32;;;5.18;;
52412;SDS011;38339;53.234;6.578;2022-08-14T14:17:42;8.45;;;5.43;;
52412;SDS011;38339;53.234;6.578;2022-08-14T14:20:11;9.52;;;5.57;;
52412;SDS011;38339;53.234;6.578;2022-08-14T14:22:40;7.97;;;5.55;;
52412;SDS011;38339;53.234;6.578;2022-08-14T14:25:08;6.28;;;4.95;;
52412;SDS011;38339;53.234;6.578;2022-08-14T14:27:35;7.70;;;5.00;;
52412;SDS011;38339;53.234;6.578;2022-08-14T14:30:03;12.07;;;5.57;;
52412;SDS011;38339;53.234;6.578;2022-08-14T14:32:30;8.05;;;5.45;;
52412;SDS011;38339;53.234;6.578;2022-08-14T14:34:58;5.80;;;4.72;;
52412;SDS011;38339;53.234;6.578;2022-08-14T14:37:26;6.30;;;4.93;;
52412;SDS011;38339;53.234;6.578;2022-08-14T14:39:52;10.20;;;5.18;;
52412;SDS011;38339;53.234;6.578;2022-08-14T14:42:21;7.32;;;5.05;;
52412;SDS011;38339;53.234;6.578;2022-08-14T14:44:49;7.32;;;4.88;;
52412;SDS011;38339;53.234;6.578;2022-08-14T14:49:50;10.13;;;5.20;;
52412;SDS011;38339;53.234;6.578;2022-08-14T14:52:17;8.20;;;5.00;;
52412;SDS011;38339;53.234;6.578;2022-08-14T14:54:47;8.68;;;5.80;;
52412;SDS011;38339;53.234;6.578;2022-08-14T14:57:13;7.40;;;5.45;;
52412;SDS011;38339;53.234;6.578;2022-08-14T14:59:42;7.78;;;5.05;;
52412;SDS011;38339;53.234;6.578;2022-08-14T15:02:07;8.15;;;5.68;;
52412;SDS011;38339;53.234;6.578;2022-08-14T15:04:41;6.82;;;4.70;;
52412;SDS011;38339;53.234;6.578;2022-08-14T15:07:08;9.40;;;5.50;;
52412;SDS011;38339;53.234;6.578;2022-08-14T15:09:34;7.25;;;5.05;;
52412;SDS011;38339;53.234;6.578;2022-08-14T15:11:59;7.47;;;5.32;;